createdAt,value
2023-05-23T00:01:08.283Z,0.50
2023-05-23T00:03:36.662Z,0.40
2023-05-23T00:06:04.766Z,0.40
2023-05-23T00:08:32.217Z,0.40
2023-05-23T00:10:59.589Z,0.33
2023-05-23T00:13:27.146Z,0.30
2023-05-23T00:15:54.526Z,0.30
2023-05-23T00:18:21.899Z,0.40
2023-05-23T00:20:49.555Z,0.30
2023-05-23T00:23:21.023Z,0.30
2023-05-23T00:25:54.441Z,0.30
2023-05-23T00:28:21.911Z,0.47
2023-05-23T00:30:49.520Z,0.40
2023-05-23T00:33:17.611Z,0.30
2023-05-23T00:35:45.104Z,0.30
2023-05-23T00:38:12.442Z,0.30
2023-05-23T00:40:39.894Z,0.40
2023-05-23T00:43:08.559Z,0.30
2023-05-23T00:45:36.127Z,0.30
2023-05-23T00:48:03.768Z,0.30
2023-05-23T00:50:31.371Z,0.30
2023-05-23T00:52:58.938Z,0.30
2023-05-23T00:55:26.331Z,0.30
2023-05-23T00:57:57.267Z,0.30
2023-05-23T01:00:25.073Z,0.30
2023-05-23T01:02:53.586Z,0.40
2023-05-23T01:05:22.918Z,0.30
2023-05-23T01:07:51.185Z,0.30
2023-05-23T01:10:19.625Z,0.30
2023-05-23T01:12:50.743Z,0.30
2023-05-23T01:15:18.917Z,0.30
2023-05-23T01:17:51.014Z,0.40
2023-05-23T01:20:20.909Z,0.40
2023-05-23T01:23:00.568Z,0.30
2023-05-23T01:25:37.199Z,0.40
2023-05-23T01:28:06.054Z,0.33
2023-05-23T01:30:33.716Z,0.43
2023-05-23T01:33:01.642Z,0.30
2023-05-23T01:35:29.138Z,0.30
2023-05-23T01:37:56.755Z,0.40
2023-05-23T01:40:24.430Z,0.40
2023-05-23T01:42:52.079Z,0.40
2023-05-23T01:45:19.476Z,0.40
2023-05-23T01:47:47.253Z,0.50
2023-05-23T01:50:14.738Z,0.40
2023-05-23T01:52:42.095Z,0.40
2023-05-23T01:55:10.009Z,0.40
2023-05-23T01:57:38.277Z,0.30
2023-05-23T02:00:06.968Z,0.30
2023-05-23T02:02:37.268Z,0.40
2023-05-23T02:05:05.214Z,0.40
2023-05-23T02:07:32.567Z,0.33
2023-05-23T02:09:59.886Z,0.40
2023-05-23T02:12:27.323Z,0.40
2023-05-23T02:14:55.577Z,0.40
2023-05-23T02:17:24.478Z,0.40
2023-05-23T02:19:52.082Z,0.40
2023-05-23T02:22:19.460Z,0.40
2023-05-23T02:24:46.898Z,0.40
2023-05-23T02:27:14.450Z,0.40
2023-05-23T02:29:42.090Z,0.40
2023-05-23T02:32:09.604Z,0.40
2023-05-23T02:34:38.546Z,0.40
2023-05-23T02:37:06.011Z,0.40
2023-05-23T02:39:33.412Z,0.40
2023-05-23T02:42:00.867Z,0.40
2023-05-23T02:44:28.359Z,0.50
2023-05-23T02:46:55.698Z,0.40
2023-05-23T02:49:23.244Z,0.40
2023-05-23T02:51:50.838Z,0.40
2023-05-23T02:54:18.277Z,0.50
2023-05-23T02:56:46.728Z,0.40
2023-05-23T02:59:14.051Z,0.40
2023-05-23T03:01:41.508Z,0.33
2023-05-23T03:04:08.924Z,0.40
2023-05-23T03:06:37.133Z,0.50
2023-05-23T03:09:04.652Z,0.50
2023-05-23T03:11:32.400Z,0.40
2023-05-23T03:13:59.871Z,0.50
2023-05-23T03:16:27.385Z,0.40
2023-05-23T03:18:55.083Z,0.40
2023-05-23T03:21:22.618Z,0.40
2023-05-23T03:23:50.654Z,0.40
2023-05-23T03:26:18.232Z,0.30
2023-05-23T03:28:45.665Z,0.30
2023-05-23T03:31:13.207Z,0.40
2023-05-23T03:33:40.954Z,0.50
2023-05-23T03:36:08.672Z,0.40
2023-05-23T03:38:36.095Z,0.40
2023-05-23T03:41:03.682Z,0.50
2023-05-23T03:43:31.167Z,0.40
2023-05-23T03:45:58.764Z,0.40
2023-05-23T03:48:26.465Z,0.40
2023-05-23T03:50:53.976Z,0.50
2023-05-23T03:53:21.445Z,0.40
2023-05-23T03:55:48.980Z,0.40
2023-05-23T03:58:16.544Z,0.50
2023-05-23T04:00:44.172Z,0.50
2023-05-23T04:03:14.935Z,0.50
2023-05-23T04:05:42.721Z,0.50
2023-05-23T04:08:10.597Z,0.50
2023-05-23T04:10:38.108Z,0.50
2023-05-23T04:13:06.580Z,0.50
2023-05-23T04:15:34.538Z,0.60
2023-05-23T04:18:02.138Z,0.60
2023-05-23T04:20:29.617Z,0.50
2023-05-23T04:22:57.047Z,0.50
2023-05-23T04:25:24.452Z,0.50
2023-05-23T04:27:51.876Z,0.50
2023-05-23T04:30:19.400Z,0.50
2023-05-23T04:32:47.118Z,0.50
2023-05-23T04:35:14.736Z,0.50
2023-05-23T04:37:42.684Z,0.50
2023-05-23T04:40:10.186Z,0.50
2023-05-23T04:42:37.737Z,0.50
2023-05-23T04:45:05.308Z,0.50
2023-05-23T04:47:37.326Z,0.47
2023-05-23T04:50:05.734Z,0.50
2023-05-23T04:52:34.384Z,0.43
2023-05-23T04:55:02.157Z,0.50
2023-05-23T04:57:29.756Z,0.50
2023-05-23T04:59:57.595Z,0.50
2023-05-23T05:02:27.234Z,0.53
2023-05-23T05:04:54.685Z,0.60
2023-05-23T05:07:22.069Z,0.50
2023-05-23T05:09:49.492Z,0.50
2023-05-23T05:12:16.808Z,0.50
2023-05-23T05:14:44.251Z,0.50
2023-05-23T05:17:11.806Z,0.50
2023-05-23T05:19:39.272Z,0.50
2023-05-23T05:22:08.162Z,0.60
2023-05-23T05:24:35.682Z,0.50
2023-05-23T05:27:03.004Z,0.50
2023-05-23T05:29:31.493Z,0.50
2023-05-23T05:31:58.908Z,0.60
2023-05-23T05:34:26.994Z,0.60
2023-05-23T05:36:56.486Z,0.60
2023-05-23T05:39:26.306Z,0.60
2023-05-23T05:41:53.713Z,0.50
2023-05-23T05:44:21.218Z,0.50
2023-05-23T05:46:49.022Z,0.50
2023-05-23T05:49:16.499Z,0.47
2023-05-23T05:51:44.033Z,0.50
2023-05-23T05:54:11.632Z,0.40
2023-05-23T05:56:38.977Z,0.50
2023-05-23T05:59:06.359Z,0.50
2023-05-23T06:01:35.099Z,0.60
2023-05-23T06:04:02.691Z,0.40
2023-05-23T06:06:30.195Z,0.40
2023-05-23T06:08:57.568Z,0.40
2023-05-23T06:11:25.001Z,0.40
2023-05-23T06:13:52.492Z,0.40
2023-05-23T06:16:19.973Z,0.40
2023-05-23T06:18:47.346Z,0.40
2023-05-23T06:21:14.780Z,0.60
2023-05-23T06:23:42.224Z,0.50
2023-05-23T06:26:11.013Z,0.40
2023-05-23T06:28:40.061Z,0.40
2023-05-23T06:31:10.121Z,0.40
2023-05-23T06:33:37.553Z,0.40
2023-05-23T06:36:05.044Z,0.40
2023-05-23T06:38:35.940Z,0.40
2023-05-23T06:41:04.017Z,0.40
2023-05-23T06:43:31.356Z,0.50
2023-05-23T06:45:58.809Z,0.40
2023-05-23T06:48:26.602Z,0.40
2023-05-23T06:50:54.039Z,0.40
2023-05-23T06:53:21.518Z,0.40
2023-05-23T06:55:48.952Z,0.40
2023-05-23T06:58:16.354Z,0.40
2023-05-23T07:00:43.967Z,0.43
2023-05-23T07:03:11.480Z,0.40
2023-05-23T07:05:41.087Z,0.40
2023-05-23T07:08:11.349Z,0.50
2023-05-23T07:10:42.022Z,0.50
2023-05-23T07:13:09.719Z,0.50
2023-05-23T07:15:37.222Z,0.50
2023-05-23T07:18:04.808Z,0.40
2023-05-23T07:20:33.718Z,0.40
2023-05-23T07:23:01.111Z,0.40
2023-05-23T07:25:28.475Z,0.40
2023-05-23T07:27:56.114Z,0.20
2023-05-23T07:30:23.630Z,0.20
2023-05-23T07:32:52.688Z,0.20
2023-05-23T07:35:24.257Z,0.20
2023-05-23T07:37:51.886Z,0.20
2023-05-23T07:40:19.400Z,0.30
2023-05-23T07:42:46.837Z,0.20
2023-05-23T07:45:14.266Z,0.20
2023-05-23T07:47:42.121Z,0.50
2023-05-23T07:50:09.738Z,0.47
2023-05-23T07:52:37.189Z,0.50
2023-05-23T07:55:04.724Z,0.40
2023-05-23T07:57:32.146Z,0.30
2023-05-23T07:59:59.469Z,0.40
2023-05-23T08:02:26.985Z,0.40
2023-05-23T08:04:54.422Z,0.50
2023-05-23T08:07:22.015Z,0.30
2023-05-23T08:09:49.399Z,0.30
2023-05-23T08:12:16.912Z,0.30
2023-05-23T08:14:51.292Z,0.30
2023-05-23T08:17:19.679Z,0.30
2023-05-23T08:19:47.733Z,0.30
2023-05-23T08:22:15.149Z,0.30
2023-05-23T08:24:42.497Z,0.30
2023-05-23T08:27:09.950Z,0.30
2023-05-23T08:29:37.615Z,0.20
2023-05-23T08:32:05.159Z,0.40
2023-05-23T08:34:33.233Z,0.30
2023-05-23T08:37:01.257Z,0.30
2023-05-23T08:39:28.687Z,0.20
2023-05-23T08:41:56.055Z,0.30
2023-05-23T08:44:23.440Z,0.30
2023-05-23T08:46:51.293Z,0.30
2023-05-23T08:49:18.972Z,0.30
2023-05-23T08:51:46.496Z,0.30
2023-05-23T08:54:14.079Z,0.30
2023-05-23T08:56:41.488Z,0.30
2023-05-23T08:59:09.557Z,0.20
2023-05-23T09:01:37.264Z,0.20
2023-05-23T09:04:05.298Z,0.20
2023-05-23T09:06:32.999Z,0.20
2023-05-23T09:09:00.397Z,0.30
2023-05-23T09:11:27.910Z,0.20
2023-05-23T09:13:56.323Z,0.20
2023-05-23T09:16:23.907Z,0.20
2023-05-23T09:18:51.573Z,0.20
2023-05-23T09:21:19.136Z,0.20
2023-05-23T09:23:46.668Z,0.20
2023-05-23T09:26:14.109Z,0.30
2023-05-23T09:28:43.604Z,0.20
2023-05-23T09:31:11.287Z,0.20
2023-05-23T09:33:42.290Z,0.20
2023-05-23T09:36:09.816Z,0.20
2023-05-23T09:38:40.345Z,0.20
2023-05-23T09:41:08.003Z,0.20
2023-05-23T09:43:35.719Z,0.20
2023-05-23T09:46:10.355Z,0.20
2023-05-23T09:48:38.082Z,0.20
2023-05-23T09:51:09.750Z,0.20
2023-05-23T09:53:37.607Z,0.20
2023-05-23T09:56:05.086Z,0.20
2023-05-23T09:58:32.692Z,0.20
2023-05-23T10:01:05.814Z,0.20
2023-05-23T10:03:38.236Z,0.20
2023-05-23T10:06:13.803Z,0.20
2023-05-23T10:08:43.022Z,0.20
2023-05-23T10:11:16.940Z,0.20
2023-05-23T10:13:44.882Z,0.20
2023-05-23T10:16:28.244Z,0.20
2023-05-23T10:18:59.351Z,0.20
2023-05-23T10:21:37.010Z,0.20
2023-05-23T10:24:07.639Z,0.20
2023-05-23T10:26:35.025Z,0.20
2023-05-23T10:29:02.387Z,0.30
2023-05-23T10:31:30.274Z,0.20
2023-05-23T10:33:59.670Z,0.20
2023-05-23T10:36:35.950Z,0.20
2023-05-23T10:39:05.836Z,0.20
2023-05-23T10:41:52.293Z,0.20
2023-05-23T10:44:40.108Z,0.20
2023-05-23T10:47:07.726Z,0.20
2023-05-23T10:49:38.845Z,0.20
2023-05-23T10:52:07.552Z,0.20
2023-05-23T10:54:54.404Z,0.20
2023-05-23T10:57:22.613Z,0.20
2023-05-23T10:59:53.071Z,0.20
2023-05-23T11:02:21.308Z,0.20
2023-05-23T11:04:48.885Z,0.20
2023-05-23T11:07:31.833Z,0.20
2023-05-23T11:10:06.280Z,0.20
2023-05-23T11:12:40.968Z,0.20
2023-05-23T11:15:24.241Z,0.20
2023-05-23T11:17:52.285Z,0.20
2023-05-23T11:20:23.677Z,0.20
2023-05-23T11:22:55.317Z,0.20
2023-05-23T11:25:23.202Z,0.20
2023-05-23T11:27:50.654Z,0.20
2023-05-23T11:30:18.536Z,0.20
2023-05-23T11:32:53.212Z,0.20
2023-05-23T11:35:21.340Z,0.20
2023-05-23T11:37:48.811Z,0.20
2023-05-23T11:40:35.135Z,0.20
2023-05-23T11:43:05.200Z,0.20
2023-05-23T11:45:32.790Z,0.20
2023-05-23T11:48:00.369Z,0.20
2023-05-23T11:50:27.799Z,0.20
2023-05-23T11:52:58.225Z,0.20
2023-05-23T11:55:25.806Z,0.20
2023-05-23T11:57:53.405Z,0.20
2023-05-23T12:00:21.073Z,0.20
2023-05-23T12:02:49.316Z,0.20
2023-05-23T12:05:17.080Z,0.20
2023-05-23T12:07:45.942Z,0.20
2023-05-23T12:10:13.513Z,0.20
2023-05-23T12:12:43.051Z,0.20
2023-05-23T12:15:11.743Z,0.20
2023-05-23T12:17:48.577Z,0.20
2023-05-23T12:20:16.398Z,0.20
2023-05-23T12:22:44.026Z,0.20
2023-05-23T12:25:11.851Z,0.40
2023-05-23T12:27:40.742Z,0.30
2023-05-23T12:30:11.226Z,0.40
2023-05-23T12:32:42.208Z,0.40
2023-05-23T12:35:10.339Z,0.20
2023-05-23T12:37:41.176Z,0.20
2023-05-23T12:40:15.082Z,0.30
2023-05-23T12:42:46.262Z,0.20
2023-05-23T12:45:15.371Z,0.30
2023-05-23T12:47:42.738Z,0.30
2023-05-23T12:50:11.862Z,0.30
2023-05-23T12:52:40.335Z,0.30
2023-05-23T12:55:08.690Z,0.30
2023-05-23T12:57:36.493Z,0.30
2023-05-23T13:00:04.824Z,0.30
2023-05-23T13:02:32.269Z,0.30
2023-05-23T13:04:59.680Z,0.25
2023-05-23T13:07:27.570Z,0.30
2023-05-23T13:09:54.932Z,0.30
2023-05-23T13:12:22.836Z,0.30
2023-05-23T13:14:50.626Z,0.20
2023-05-23T13:17:18.598Z,0.20
2023-05-23T13:19:45.924Z,0.40
2023-05-23T13:22:13.432Z,0.40
2023-05-23T13:24:41.072Z,0.40
2023-05-23T13:27:08.445Z,0.40
2023-05-23T13:29:35.968Z,0.30
2023-05-23T13:32:03.333Z,0.30
2023-05-23T13:34:30.783Z,0.40
2023-05-23T13:36:58.249Z,0.32
2023-05-23T13:39:25.704Z,0.40
2023-05-23T13:41:53.304Z,0.30
2023-05-23T13:44:20.736Z,0.40
2023-05-23T13:46:48.324Z,0.30
2023-05-23T13:49:15.858Z,0.30
2023-05-23T13:51:44.478Z,0.40
2023-05-23T13:54:13.499Z,0.40
2023-05-23T13:56:41.169Z,0.30
2023-05-23T13:59:08.500Z,0.30
2023-05-23T14:01:36.003Z,0.30
2023-05-23T14:04:04.728Z,0.30
2023-05-23T14:06:33.914Z,0.30
2023-05-23T14:09:01.588Z,0.30
2023-05-23T14:11:28.927Z,0.30
2023-05-23T14:13:58.759Z,0.30
2023-05-23T14:16:26.390Z,0.40
2023-05-23T14:18:53.898Z,0.30
2023-05-23T14:21:22.063Z,0.20
2023-05-23T14:23:49.501Z,0.30
2023-05-23T14:26:16.877Z,0.20
2023-05-23T14:28:44.333Z,0.20
2023-05-23T14:31:11.733Z,0.30
2023-05-23T14:33:39.125Z,0.30
2023-05-23T14:36:06.582Z,0.32
2023-05-23T14:38:34.015Z,0.40
2023-05-23T14:41:01.377Z,0.40
2023-05-23T14:43:28.949Z,0.40
2023-05-23T14:45:56.743Z,0.60
2023-05-23T14:48:24.345Z,0.50
2023-05-23T14:50:51.729Z,0.50
2023-05-23T14:53:22.486Z,0.40
2023-05-23T14:55:49.898Z,0.40
2023-05-23T14:58:18.232Z,0.50
2023-05-23T15:00:48.198Z,0.50
2023-05-23T15:03:15.978Z,0.50
2023-05-23T15:05:45.803Z,0.50
2023-05-23T15:08:14.983Z,0.40
2023-05-23T15:10:45.242Z,0.40
2023-05-23T15:13:12.676Z,0.40
2023-05-23T15:15:41.317Z,0.40
2023-05-23T15:18:11.359Z,0.50
2023-05-23T15:20:38.978Z,0.20
2023-05-23T15:23:06.422Z,0.30
2023-05-23T15:25:47.218Z,0.30
2023-05-23T15:28:16.636Z,0.20
2023-05-23T15:30:44.328Z,0.20
2023-05-23T15:33:13.086Z,0.20
2023-05-23T15:35:40.713Z,0.20
2023-05-23T15:38:08.272Z,0.20
2023-05-23T15:40:35.839Z,0.20
2023-05-23T15:43:03.214Z,0.20
2023-05-23T15:45:30.693Z,0.20
2023-05-23T15:47:58.110Z,0.20
2023-05-23T15:50:25.605Z,0.30
2023-05-23T15:52:53.074Z,0.20
2023-05-23T15:55:20.671Z,0.20
2023-05-23T15:57:48.074Z,0.30
2023-05-23T16:00:16.599Z,0.20
2023-05-23T16:02:44.325Z,0.20
2023-05-23T16:05:11.723Z,0.70
2023-05-23T16:07:39.150Z,0.60
2023-05-23T16:10:06.756Z,0.50
2023-05-23T16:12:34.119Z,0.40
2023-05-23T16:15:01.485Z,0.50
2023-05-23T16:17:28.949Z,0.50
2023-05-23T16:19:56.297Z,0.63
2023-05-23T16:22:24.121Z,0.50
2023-05-23T16:24:52.804Z,0.60
2023-05-23T16:27:20.836Z,0.60
2023-05-23T16:29:48.262Z,0.60
2023-05-23T16:32:17.137Z,0.40
2023-05-23T16:34:52.832Z,0.50
2023-05-23T16:37:21.893Z,0.70
2023-05-23T16:39:50.490Z,0.50
2023-05-23T16:42:18.074Z,0.50
2023-05-23T16:44:46.121Z,0.50
2023-05-23T16:47:13.548Z,0.50
2023-05-23T16:49:40.943Z,0.20
2023-05-23T16:52:08.407Z,0.60
2023-05-23T16:54:36.181Z,0.60
2023-05-23T16:57:04.154Z,0.70
2023-05-23T16:59:32.802Z,0.50
2023-05-23T17:02:00.233Z,0.50
2023-05-23T17:04:27.573Z,0.50
2023-05-23T17:06:55.095Z,0.50
2023-05-23T17:09:22.869Z,0.50
2023-05-23T17:11:51.156Z,0.60
2023-05-23T17:14:18.498Z,0.60
2023-05-23T17:16:45.957Z,0.50
2023-05-23T17:19:13.332Z,0.50
2023-05-23T17:21:40.794Z,0.50
2023-05-23T17:24:08.122Z,0.50
2023-05-23T17:26:35.715Z,0.50
2023-05-23T17:29:03.159Z,0.40
2023-05-23T17:31:31.036Z,0.50
2023-05-23T17:33:58.529Z,0.50
2023-05-23T17:36:26.133Z,0.50
2023-05-23T17:38:53.963Z,0.40
2023-05-23T17:41:24.648Z,0.40
2023-05-23T17:43:55.115Z,0.50
2023-05-23T17:46:22.501Z,0.60
2023-05-23T17:48:49.882Z,0.50
2023-05-23T17:51:17.386Z,0.50
2023-05-23T17:53:44.786Z,0.60
2023-05-23T17:56:12.244Z,0.50
2023-05-23T17:58:42.429Z,0.50
2023-05-23T18:01:14.630Z,0.50
2023-05-23T18:03:42.100Z,0.50
2023-05-23T18:06:09.500Z,0.50
2023-05-23T18:08:36.838Z,0.40
2023-05-23T18:11:04.419Z,0.40
2023-05-23T18:13:31.763Z,0.50
2023-05-23T18:15:59.108Z,0.40
2023-05-23T18:18:26.639Z,0.50
2023-05-23T18:20:54.094Z,0.40
2023-05-23T18:23:22.077Z,0.50
2023-05-23T18:25:49.795Z,0.50
2023-05-23T18:28:17.209Z,0.50
2023-05-23T18:30:45.006Z,0.40
2023-05-23T18:33:12.717Z,0.40
2023-05-23T18:35:40.461Z,0.50
2023-05-23T18:38:08.175Z,0.50
2023-05-23T18:40:35.717Z,0.50
2023-05-23T18:43:03.104Z,0.50
2023-05-23T18:45:30.618Z,0.50
2023-05-23T18:47:58.852Z,0.50
2023-05-23T18:50:27.299Z,0.50
2023-05-23T18:52:54.693Z,0.50
2023-05-23T18:55:22.230Z,0.50
2023-05-23T18:57:49.682Z,0.60
2023-05-23T19:00:17.328Z,0.50
2023-05-23T19:02:45.966Z,0.60
2023-05-23T19:05:13.504Z,0.50
2023-05-23T19:07:40.964Z,0.50
2023-05-23T19:10:08.859Z,0.50
2023-05-23T19:12:36.487Z,0.50
2023-05-23T19:15:04.488Z,0.60
2023-05-23T19:17:32.845Z,0.50
2023-05-23T19:20:00.304Z,0.50
2023-05-23T19:22:36.053Z,0.50
2023-05-23T19:25:10.867Z,0.50
2023-05-23T19:27:38.490Z,0.50
2023-05-23T19:30:06.700Z,0.50
2023-05-23T19:32:34.162Z,0.50
2023-05-23T19:35:01.736Z,0.50
2023-05-23T19:37:29.310Z,0.50
2023-05-23T19:39:56.963Z,0.50
2023-05-23T19:42:24.425Z,0.60
2023-05-23T19:44:51.780Z,0.60
2023-05-23T19:47:19.381Z,0.70
2023-05-23T19:49:46.792Z,0.70
2023-05-23T19:52:14.501Z,0.40
2023-05-23T19:54:41.993Z,0.30
2023-05-23T19:57:09.450Z,0.30
2023-05-23T19:59:37.528Z,0.30
2023-05-23T20:02:04.984Z,0.20
2023-05-23T20:04:32.436Z,0.30
2023-05-23T20:07:00.466Z,0.30
2023-05-23T20:09:28.339Z,0.30
2023-05-23T20:11:55.825Z,0.30
2023-05-23T20:14:23.348Z,0.40
2023-05-23T20:16:51.051Z,0.30
2023-05-23T20:19:18.595Z,0.50
2023-05-23T20:21:45.934Z,0.40
2023-05-23T20:24:15.153Z,0.40
2023-05-23T20:26:43.041Z,0.20
2023-05-23T20:29:10.442Z,0.20
2023-05-23T20:31:37.873Z,0.20
2023-05-23T20:34:05.264Z,0.30
2023-05-23T20:36:33.348Z,0.20
2023-05-23T20:39:00.844Z,0.30
2023-05-23T20:41:29.655Z,0.30
2023-05-23T20:43:57.088Z,0.20
2023-05-23T20:46:26.438Z,0.40
2023-05-23T20:48:53.978Z,0.30
2023-05-23T20:51:22.483Z,0.30
2023-05-23T20:53:49.862Z,0.30
2023-05-23T20:56:17.362Z,0.30
2023-05-23T20:58:46.003Z,0.40
2023-05-23T21:01:15.229Z,0.40
2023-05-23T21:03:42.805Z,0.40
2023-05-23T21:06:10.201Z,0.30
2023-05-23T21:08:37.576Z,0.20
2023-05-23T21:11:05.069Z,0.40
2023-05-23T21:13:32.491Z,0.47
2023-05-23T21:15:59.883Z,1.90
2023-05-23T21:18:27.251Z,1.50
2023-05-23T21:20:54.651Z,1.60
2023-05-23T21:23:22.029Z,1.20
2023-05-23T21:25:49.390Z,0.33
2023-05-23T21:28:16.704Z,0.70
2023-05-23T21:30:45.043Z,0.20
2023-05-23T21:33:12.775Z,0.30
2023-05-23T21:35:40.382Z,0.30
2023-05-23T21:38:08.010Z,0.20
2023-05-23T21:40:35.497Z,0.20
2023-05-23T21:43:02.879Z,2.50
2023-05-23T21:45:30.436Z,0.20
2023-05-23T21:47:57.875Z,0.27
2023-05-23T21:50:25.279Z,2.27
2023-05-23T21:52:52.713Z,2.40
2023-05-23T21:55:20.087Z,2.17
2023-05-23T21:57:47.422Z,0.23
2023-05-23T22:00:15.460Z,0.20
2023-05-23T22:02:44.463Z,0.20
2023-05-23T22:05:13.331Z,0.20
2023-05-23T22:07:40.972Z,1.53
2023-05-23T22:10:08.528Z,0.30
2023-05-23T22:12:36.365Z,0.30
2023-05-23T22:15:03.762Z,0.30
2023-05-23T22:17:34.204Z,0.70
2023-05-23T22:20:05.147Z,0.20
2023-05-23T22:22:32.655Z,0.20
2023-05-23T22:24:59.995Z,0.20
2023-05-23T22:27:27.528Z,0.20
2023-05-23T22:29:54.936Z,0.30
2023-05-23T22:32:22.352Z,0.20
2023-05-23T22:34:49.763Z,0.20
2023-05-23T22:37:17.177Z,0.23
2023-05-23T22:39:44.533Z,3.10
2023-05-23T22:42:12.053Z,2.80
2023-05-23T22:44:39.353Z,1.23
2023-05-23T22:47:06.795Z,2.37
2023-05-23T22:49:34.253Z,0.40
2023-05-23T22:52:02.107Z,0.30
2023-05-23T22:54:29.452Z,0.30
2023-05-23T22:56:56.979Z,0.30
2023-05-23T22:59:24.408Z,0.20
2023-05-23T23:01:51.769Z,0.20
2023-05-23T23:04:23.804Z,0.20
2023-05-23T23:06:53.842Z,0.20
2023-05-23T23:09:21.408Z,0.20
2023-05-23T23:11:48.784Z,0.30
2023-05-23T23:14:16.160Z,2.10
2023-05-23T23:16:46.435Z,3.40
2023-05-23T23:19:14.062Z,2.03
2023-05-23T23:21:41.428Z,1.80
2023-05-23T23:24:08.892Z,1.80
2023-05-23T23:26:36.549Z,1.60
2023-05-23T23:29:04.096Z,1.40
2023-05-23T23:31:31.436Z,0.80
2023-05-23T23:33:58.891Z,1.70
2023-05-23T23:36:26.285Z,1.60
2023-05-23T23:38:53.639Z,1.40
2023-05-23T23:41:21.326Z,1.50
2023-05-23T23:43:48.678Z,1.30
2023-05-23T23:46:16.828Z,1.47
2023-05-23T23:48:44.283Z,1.40
2023-05-23T23:51:13.035Z,1.13
2023-05-23T23:53:40.604Z,1.47
2023-05-23T23:56:08.070Z,1.20
2023-05-23T23:58:35.905Z,1.40
